Marco Polo — C6JZ7 — position and weather

sailwx.info

Track history (hours):
 
Tides and Currents Weather Stations Pressure Air Temp Water Temp Dewpoint Dewpoint Depression Visibility Wind Speed Wind Dir Waves Ship Positions

Marco Polo

Operator: Orient Lines

Last reported at 2017-Apr-27 01:30 UTC. Time now 2017-Apr-27 01:32 UTC.
Position N 50°38' W 005°36'.

Type: Ship. MMSI: 308691456.

Date/timePositionNaut miles runAvg speedWind from/ knotsBaromVisibWave heightAir tempDewpointWater temp
2017-Apr-27 01:30N 50°38' W 005°36'815.3
2017-Apr-27 01:00N 50°42' W 005°27'815.8
2017-Apr-27 00:30N 50°47' W 005°17'816.1
2017-Apr-27 00:00N 50°52' W 005°07'816.3
2017-Apr-26 23:30N 50°57' W 004°57'816.7
2017-Apr-26 23:00N 51°02' W 004°46'917.7
2017-Apr-26 22:30N 51°07' W 004°35'918.0
2017-Apr-26 22:00N 51°13' W 004°23'918.5
2017-Apr-26 21:30N 51°17' W 004°10'1019.0
2017-Apr-26 20:59N 51°18' W 003°54'1019.0
2017-Apr-26 20:29N 51°20' W 003°39'1118.3
2017-Apr-26 19:52N 51°21' W 003°21'716.1
2017-Apr-26 19:27N 51°22' W 003°10'613.2
2017-Apr-26 19:01N 51°25' W 003°03'714.1
2017-Apr-26 18:30N 51°28' W 002°53'612.0
2017-Apr-26 18:00N 51°30' W 002°44'1 1.4
2017-Apr-26 17:31N 51°30' W 002°43'0 0.3
2017-Apr-26 16:58N 51°30' W 002°43'0 0.0
2017-Apr-26 16:28N 51°30' W 002°43'0 0.0
2017-Apr-26 15:58N 51°30' W 002°43'0 0.0
2017-Apr-26 15:28N 51°30' W 002°43'0 0.0
2017-Apr-26 14:58N 51°30' W 002°43'0 0.0
2017-Apr-26 14:28N 51°30' W 002°43'0 0.0
2017-Apr-26 13:28N 51°30' W 002°43'0 0.0
2017-Apr-26 12:58N 51°30' W 002°43'0 0.0
2017-Apr-26 12:28N 51°30' W 002°43'0 0.0
2017-Apr-26 11:58N 51°30' W 002°43'0 0.0
2017-Apr-26 11:28N 51°30' W 002°43'0 0.0
2017-Apr-26 10:58N 51°30' W 002°43'0 0.0
2017-Apr-26 10:28N 51°30' W 002°43'0 0.0
2017-Apr-26 09:58N 51°30' W 002°43'0 0.0
2017-Apr-26 09:28N 51°30' W 002°43'0 0.0
2017-Apr-26 08:58N 51°30' W 002°43'0 0.0
2017-Apr-26 08:28N 51°30' W 002°43'0 0.0
2017-Apr-26 07:58N 51°30' W 002°43'0 0.0
2017-Apr-26 07:28N 51°30' W 002°43'0 0.0
2017-Apr-26 06:58N 51°30' W 002°43'0 0.2
2017-Apr-26 06:30N 51°30' W 002°43'0 0.5
2017-Apr-26 06:00N 51°30' W 002°43'1 1.6
2017-Apr-26 05:30N 51°30' W 002°44'1016.2
2017-Apr-26 04:54N 51°27' W 002°59'5515.4
2017-Apr-26 01:20N 51°23' W 004°27'616.2
2017-Apr-26 00:58N 51°24' W 004°36'715.6
2017-Apr-26 00:30N 51°25' W 004°48'714.9
2017-Apr-26 00:00N 51°26' W 004°60'714.9
2017-Apr-25 23:30N 51°27' W 005°11'815.1
2017-Apr-25 23:00N 51°28' W 005°23'714.6
2017-Apr-25 22:30N 51°29' W 005°35'714.2
2017-Apr-25 21:59N 51°30' W 005°46'4815.1
2017-Apr-25 18:48N 51°38' W 007°03'415.2
2017-Apr-25 18:30N 51°39' W 007°10'815.5
2017-Apr-25 17:58N 51°40' W 007°23'715.7
2017-Apr-25 17:30N 51°41' W 007°35'815.7
2017-Apr-25 17:00N 51°42' W 007°47'815.6
2017-Apr-25 16:31N 51°44' W 007°59'815.5
2017-Apr-25 16:00N 51°45' W 008°12'5 9.6
2017-Apr-25 15:30N 51°49' W 008°16'2 4.2
2017-Apr-25 14:58N 51°51' W 008°18'0 0.0
2017-Apr-25 14:28N 51°51' W 008°18'0 0.0
2017-Apr-25 13:28N 51°51' W 008°18'0 0.0
2017-Apr-25 12:58N 51°51' W 008°18'0 0.0
2017-Apr-25 12:28N 51°51' W 008°18'0 0.0
2017-Apr-25 11:58N 51°51' W 008°18'0 0.0
2017-Apr-25 11:28N 51°51' W 008°18'0 0.0
2017-Apr-25 10:58N 51°51' W 008°18'0 0.0
2017-Apr-25 10:28N 51°51' W 008°18'0 0.0
2017-Apr-25 09:58N 51°51' W 008°18'0 0.0
2017-Apr-25 09:28N 51°51' W 008°18'0 0.0
2017-Apr-25 08:58N 51°51' W 008°18'0 0.0
2017-Apr-25 08:28N 51°51' W 008°18'0 0.0
2017-Apr-25 07:58N 51°51' W 008°18'0 0.0
2017-Apr-25 07:28N 51°51' W 008°18'0 0.0
2017-Apr-25 06:58N 51°51' W 008°18'0 0.0
2017-Apr-25 06:28N 51°51' W 008°18'1 2.0
2017-Apr-25 06:00N 51°51' W 008°17'510.8
2017-Apr-25 05:30N 51°46' W 008°15'611.2
2017-Apr-25 05:01N 51°42' W 008°08'713.6
2017-Apr-25 04:30N 51°46' W 007°59'714.1
2017-Apr-25 04:00N 51°48' W 007°48'714.1
2017-Apr-25 03:30N 51°51' W 007°38'714.3
2017-Apr-25 03:00N 51°53' W 007°27'714.2
2017-Apr-25 02:30N 51°55' W 007°16'714.4
2017-Apr-25 02:01N 51°57' W 007°04'714.7
2017-Apr-25 01:31N 51°59' W 006°53'815.1
2017-Apr-25 01:01N 52°01' W 006°41'915.5
2017-Apr-25 00:27N 52°04' W 006°28'716.4
2017-Apr-25 00:00N 52°06' W 006°16'816.7
2017-Apr-24 23:30N 52°12' W 006°07'917.7
2017-Apr-24 23:01N 52°20' W 006°03'917.0
2017-Apr-24 22:30N 52°29' W 006°00'3914.5
2017-Apr-24 19:50N 53°07' W 005°57'613.8
2017-Apr-24 19:26N 53°13' W 005°60'614.1
2017-Apr-24 19:00N 53°18' W 006°03'510.9
2017-Apr-24 18:30N 53°21' W 006°11'1 1.9
2017-Apr-24 17:59N 53°21' W 006°13'0 0.0
2017-Apr-24 17:26N 53°21' W 006°13'0 0.0
2017-Apr-24 16:53N 53°21' W 006°13'0 0.0
2017-Apr-24 16:14N 53°21' W 006°13'0 0.0
2017-Apr-24 15:50N 53°21' W 006°13'0 0.0
2017-Apr-24 15:17N 53°21' W 006°13'0 0.0
2017-Apr-24 14:38N 53°21' W 006°13'0 0.0
2017-Apr-24 14:14N 53°21' W 006°13'0 0.0
2017-Apr-24 13:29N 53°21' W 006°13'0 0.0
2017-Apr-24 12:56N 53°21' W 006°13'0 0.0
2017-Apr-24 12:29N 53°21' W 006°13'0 0.0
2017-Apr-24 11:59N 53°21' W 006°13'0 0.0
2017-Apr-24 11:29N 53°21' W 006°13'0 0.0
2017-Apr-24 10:56N 53°21' W 006°13'0 0.0
2017-Apr-24 10:26N 53°21' W 006°13'0 0.0
2017-Apr-24 09:56N 53°21' W 006°13'0 0.0
2017-Apr-24 09:26N 53°21' W 006°13'0 0.0
2017-Apr-24 08:56N 53°21' W 006°13'0 0.0
2017-Apr-24 08:23N 53°21' W 006°13'0 0.0
2017-Apr-24 07:50N 53°21' W 006°13'0 0.0
2017-Apr-24 07:20N 53°21' W 006°13'0 0.0
2017-Apr-24 06:54N 53°21' W 006°13'0 1.2
2017-Apr-24 06:30N 53°21' W 006°12'510.0
2017-Apr-24 06:00N 53°20' W 006°04'510.8
2017-Apr-24 05:30N 53°25' W 005°58'713.1
2017-Apr-24 05:00N 53°28' W 005°49'712.3
2017-Apr-24 04:24N 53°35' W 005°52'614.1
2017-Apr-24 03:59N 53°41' W 005°48'714.3
2017-Apr-24 03:30N 53°47' W 005°44'714.6
2017-Apr-24 03:00N 53°54' W 005°39'714.5
2017-Apr-24 02:30N 54°01' W 005°35'714.4
2017-Apr-24 02:00N 54°07' W 005°30'714.1
2017-Apr-24 01:30N 54°14' W 005°26'714.4
2017-Apr-24 01:00N 54°21' W 005°21'714.1
2017-Apr-24 00:30N 54°28' W 005°20'815.6
2017-Apr-24 00:00N 54°35' W 005°20'815.2
2017-Apr-23 23:30N 54°43' W 005°23'816.0
2017-Apr-23 23:00N 54°50' W 005°30'916.1
2017-Apr-23 22:28N 54°57' W 005°38'1116.6
2017-Apr-23 21:47N 55°06' W 005°50'517.1
2017-Apr-23 21:30N 55°10' W 005°55'917.8
2017-Apr-23 21:00N 55°17' W 006°03'917.2
2017-Apr-23 20:30N 55°22' W 006°16'917.5
2017-Apr-23 20:00N 55°30' W 006°23'917.5
2017-Apr-23 19:30N 55°37' W 006°33'918.5
2017-Apr-23 19:00N 55°45' W 006°40'15 0.3
2017-Apr-21 23:08N 55°54' W 007°01'216.4
2017-Apr-21 23:00N 55°52' W 006°59'816.6
2017-Apr-21 22:31N 55°46' W 006°50'917.4
2017-Apr-21 22:00N 55°39' W 006°40'917.4
2017-Apr-21 21:31N 55°33' W 006°29'917.1
2017-Apr-21 21:01N 55°28' W 006°17'816.6
2017-Apr-21 20:31N 55°24' W 006°04'816.6
2017-Apr-21 20:00N 55°17' W 005°55'1316.3
2017-Apr-21 19:13N 55°05' W 005°48'716.0
2017-Apr-21 18:48N 54°59' W 005°44'815.7
2017-Apr-21 18:16N 54°51' W 005°40'415.8
2017-Apr-21 18:01N 54°47' W 005°40'612.5
2017-Apr-21 17:30N 54°41' W 005°46'510.8
2017-Apr-21 17:00N 54°38' W 005°53'2 3.3
2017-Apr-21 16:30N 54°37' W 005°55'0 0.2
2017-Apr-21 15:58N 54°37' W 005°55'0 0.0
2017-Apr-21 15:28N 54°37' W 005°55'0 0.0
2017-Apr-21 14:49N 54°37' W 005°55'0 0.0
2017-Apr-21 14:16N 54°37' W 005°55'0 0.0
2017-Apr-21 13:22N 54°37' W 005°55'0 0.0
2017-Apr-21 12:58N 54°37' W 005°55'0 0.0
2017-Apr-21 12:25N 54°37' W 005°55'0 0.0
2017-Apr-21 11:58N 54°37' W 005°55'0 0.0
2017-Apr-21 11:28N 54°37' W 005°55'0 0.0
2017-Apr-21 10:58N 54°37' W 005°55'0 0.0
2017-Apr-21 10:28N 54°37' W 005°55'0 0.0
2017-Apr-21 09:55N 54°37' W 005°55'0 0.0
2017-Apr-21 09:28N 54°37' W 005°55'0 0.0
2017-Apr-21 08:58N 54°37' W 005°55'0 0.0
2017-Apr-21 08:28N 54°37' W 005°55'0 0.0
2017-Apr-21 07:58N 54°37' W 005°55'0 0.0
2017-Apr-21 07:28N 54°37' W 005°55'0 0.0
2017-Apr-21 06:58N 54°37' W 005°55'0 0.0
2017-Apr-21 06:28N 54°37' W 005°55'0 0.0
2017-Apr-21 05:52N 54°37' W 005°55'0 0.4
2017-Apr-21 05:30N 54°37' W 005°55'2 4.7
2017-Apr-21 05:01N 54°39' W 005°52'510.0
2017-Apr-21 04:31N 54°42' W 005°46'5 9.7
2017-Apr-21 04:01N 54°44' W 005°38'611.4
2017-Apr-21 03:31N 54°42' W 005°28'612.2
2017-Apr-21 03:01N 54°36' W 005°24'612.8
2017-Apr-21 02:30N 54°30' W 005°21'713.1
2017-Apr-21 02:01N 54°24' W 005°19'713.1
2017-Apr-21 01:31N 54°17' W 005°18'713.0
2017-Apr-21 01:01N 54°10' W 005°18'510.2
2017-Apr-21 00:31N 54°05' W 005°19'510.6
2017-Apr-21 00:01N 54°00' W 005°20'510.5
2017-Apr-20 23:31N 53°55' W 005°21'2910.1
2017-Apr-20 20:39N 53°26' W 005°28'2 9.7
2017-Apr-20 20:24N 53°24' W 005°28'5 9.6
2017-Apr-20 19:52N 53°19' W 005°29'5810.8
2017-Apr-20 14:30N 52°21' W 005°40'46 9.1
2017-Apr-20 09:26N 51°35' W 005°37'4 9.8
2017-Apr-20 09:00N 51°34' W 005°30'5 9.5
2017-Apr-20 08:30N 51°33' W 005°23'5 9.4
2017-Apr-20 08:00N 51°32' W 005°15'5 9.2
2017-Apr-20 07:30N 51°31' W 005°08'5 9.5
2017-Apr-20 07:01N 51°30' W 005°01'510.0
2017-Apr-20 06:31N 51°29' W 004°53'910.6
2017-Apr-20 05:40N 51°27' W 004°39'210.5
2017-Apr-20 05:26N 51°26' W 004°35'510.9
2017-Apr-20 04:58N 51°25' W 004°27'511.2
2017-Apr-20 04:30N 51°24' W 004°19'611.1
2017-Apr-20 04:01N 51°23' W 004°11'611.7
2017-Apr-20 03:31N 51°21' W 004°01'612.3
2017-Apr-20 03:00N 51°20' W 003°51'612.7
2017-Apr-20 02:31N 51°20' W 003°41'1112.2
2017-Apr-20 01:36N 51°21' W 003°24'211.8
2017-Apr-20 01:24N 51°21' W 003°20'510.3
2017-Apr-20 00:53N 51°22' W 003°12'513.0
2017-Apr-20 00:30N 51°23' W 003°04'713.1
2017-Apr-20 00:00N 51°27' W 002°56'713.4
2017-Apr-19 23:30N 51°30' W 002°46'2 4.0
2017-Apr-19 23:00N 51°30' W 002°43'0 0.3
2017-Apr-19 22:28N 51°30' W 002°43'0 0.0
2017-Apr-19 21:58N 51°30' W 002°43'0 0.0
2017-Apr-19 21:28N 51°30' W 002°43'0 0.0
2017-Apr-19 20:58N 51°30' W 002°43'0 0.0
2017-Apr-19 20:28N 51°30' W 002°43'0 0.0
2017-Apr-19 19:58N 51°30' W 002°43'0 0.0
2017-Apr-19 19:28N 51°30' W 002°43'0 0.0
2017-Apr-19 18:58N 51°30' W 002°43'0 0.0
2017-Apr-19 18:28N 51°30' W 002°43'0 0.0
2017-Apr-19 17:58N 51°30' W 002°43'0 0.0
2017-Apr-19 17:28N 51°30' W 002°43'0 0.0
2017-Apr-19 16:58N 51°30' W 002°43'0 0.0
2017-Apr-19 16:28N 51°30' W 002°43'0 0.0
2017-Apr-19 15:58N 51°30' W 002°43'0 0.0
2017-Apr-19 15:28N 51°30' W 002°43'0 0.0
2017-Apr-19 14:58N 51°30' W 002°43'0 0.0
2017-Apr-19 14:28N 51°30' W 002°43'0 0.0
2017-Apr-19 13:25N 51°30' W 002°43'0 0.0
2017-Apr-19 12:58N 51°30' W 002°43'0 0.0
2017-Apr-19 12:28N 51°30' W 002°43'0 0.3
2017-Apr-19 12:00N 51°30' W 002°43'0 0.2
2017-Apr-19 11:30N 51°30' W 002°43'0 0.3
2017-Apr-19 11:00N 51°30' W 002°43'3 6.5
2017-Apr-19 10:31N 51°29' W 002°48'714.7
2017-Apr-19 10:00N 51°27' W 002°59'4815.0
2017-Apr-19 06:47N 51°15' W 004°14'515.3
2017-Apr-19 06:28N 51°13' W 004°21'714.9
2017-Apr-19 06:00N 51°08' W 004°29'714.8
2017-Apr-19 05:30N 51°03' W 004°38'714.5
2017-Apr-19 05:00N 50°59' W 004°47'714.1
2017-Apr-19 04:30N 50°54' W 004°55'5 9.4
2017-Apr-19 04:00N 50°51' W 005°01'510.3
2017-Apr-19 03:30N 50°48' W 005°07'510.3
2017-Apr-19 03:01N 50°44' W 005°13'510.2
2017-Apr-19 02:30N 50°41' W 005°19'510.2
2017-Apr-19 02:00N 50°37' W 005°25'510.2
2017-Apr-19 01:30N 50°34' W 005°30'510.2
2017-Apr-19 01:00N 50°30' W 005°36'510.2
2017-Apr-19 00:30N 50°27' W 005°42'510.3
2017-Apr-19 00:00N 50°23' W 005°48'5 9.7
2017-Apr-18 23:30N 50°19' W 005°53'510.4
2017-Apr-18 23:00N 50°14' W 005°52'510.5
2017-Apr-18 22:30N 50°09' W 005°52'510.6
2017-Apr-18 22:00N 50°04' W 005°51'  
Track history (hours):
 
Tides and Currents Weather Stations Pressure Air Temp Water Temp Dewpoint Dewpoint Depression Visibility Wind Speed Wind Dir Waves Ship Positions

Marco Polo

Operator: Orient Lines

Last reported at 2017-Apr-27 01:30 UTC. Time now 2017-Apr-27 01:32 UTC.
Position N 50°38' W 005°36'.

Type: Ship. MMSI: 308691456.

Date/timePositionNaut miles runAvg speedWind from/ knotsBaromVisibWave heightAir tempDewpointWater temp
2017-Apr-27 01:30N 50°38' W 005°36'815.3
2017-Apr-27 01:00N 50°42' W 005°27'815.8
2017-Apr-27 00:30N 50°47' W 005°17'816.1
2017-Apr-27 00:00N 50°52' W 005°07'816.3
2017-Apr-26 23:30N 50°57' W 004°57'816.7
2017-Apr-26 23:00N 51°02' W 004°46'917.7
2017-Apr-26 22:30N 51°07' W 004°35'918.0
2017-Apr-26 22:00N 51°13' W 004°23'918.5
2017-Apr-26 21:30N 51°17' W 004°10'1019.0
2017-Apr-26 20:59N 51°18' W 003°54'1019.0
2017-Apr-26 20:29N 51°20' W 003°39'1118.3
2017-Apr-26 19:52N 51°21' W 003°21'716.1
2017-Apr-26 19:27N 51°22' W 003°10'613.2
2017-Apr-26 19:01N 51°25' W 003°03'714.1
2017-Apr-26 18:30N 51°28' W 002°53'612.0
2017-Apr-26 18:00N 51°30' W 002°44'1 1.4
2017-Apr-26 17:31N 51°30' W 002°43'0 0.3
2017-Apr-26 16:58N 51°30' W 002°43'0 0.0
2017-Apr-26 16:28N 51°30' W 002°43'0 0.0
2017-Apr-26 15:58N 51°30' W 002°43'0 0.0
2017-Apr-26 15:28N 51°30' W 002°43'0 0.0
2017-Apr-26 14:58N 51°30' W 002°43'0 0.0
2017-Apr-26 14:28N 51°30' W 002°43'0 0.0
2017-Apr-26 13:28N 51°30' W 002°43'0 0.0
2017-Apr-26 12:58N 51°30' W 002°43'0 0.0
2017-Apr-26 12:28N 51°30' W 002°43'0 0.0
2017-Apr-26 11:58N 51°30' W 002°43'0 0.0
2017-Apr-26 11:28N 51°30' W 002°43'0 0.0
2017-Apr-26 10:58N 51°30' W 002°43'0 0.0
2017-Apr-26 10:28N 51°30' W 002°43'0 0.0
2017-Apr-26 09:58N 51°30' W 002°43'0 0.0
2017-Apr-26 09:28N 51°30' W 002°43'0 0.0
2017-Apr-26 08:58N 51°30' W 002°43'0 0.0
2017-Apr-26 08:28N 51°30' W 002°43'0 0.0
2017-Apr-26 07:58N 51°30' W 002°43'0 0.0
2017-Apr-26 07:28N 51°30' W 002°43'0 0.0
2017-Apr-26 06:58N 51°30' W 002°43'0 0.2
2017-Apr-26 06:30N 51°30' W 002°43'0 0.5
2017-Apr-26 06:00N 51°30' W 002°43'1 1.6
2017-Apr-26 05:30N 51°30' W 002°44'1016.2
2017-Apr-26 04:54N 51°27' W 002°59'5515.4
2017-Apr-26 01:20N 51°23' W 004°27'616.2
2017-Apr-26 00:58N 51°24' W 004°36'715.6
2017-Apr-26 00:30N 51°25' W 004°48'714.9
2017-Apr-26 00:00N 51°26' W 004°60'714.9
2017-Apr-25 23:30N 51°27' W 005°11'815.1
2017-Apr-25 23:00N 51°28' W 005°23'714.6
2017-Apr-25 22:30N 51°29' W 005°35'714.2
2017-Apr-25 21:59N 51°30' W 005°46'4815.1
2017-Apr-25 18:48N 51°38' W 007°03'415.2
2017-Apr-25 18:30N 51°39' W 007°10'815.5
2017-Apr-25 17:58N 51°40' W 007°23'715.7
2017-Apr-25 17:30N 51°41' W 007°35'815.7
2017-Apr-25 17:00N 51°42' W 007°47'815.6
2017-Apr-25 16:31N 51°44' W 007°59'815.5
2017-Apr-25 16:00N 51°45' W 008°12'5 9.6
2017-Apr-25 15:30N 51°49' W 008°16'2 4.2
2017-Apr-25 14:58N 51°51' W 008°18'0 0.0
2017-Apr-25 14:28N 51°51' W 008°18'0 0.0
2017-Apr-25 13:28N 51°51' W 008°18'0 0.0
2017-Apr-25 12:58N 51°51' W 008°18'0 0.0
2017-Apr-25 12:28N 51°51' W 008°18'0 0.0
2017-Apr-25 11:58N 51°51' W 008°18'0 0.0
2017-Apr-25 11:28N 51°51' W 008°18'0 0.0
2017-Apr-25 10:58N 51°51' W 008°18'0 0.0
2017-Apr-25 10:28N 51°51' W 008°18'0 0.0
2017-Apr-25 09:58N 51°51' W 008°18'0 0.0
2017-Apr-25 09:28N 51°51' W 008°18'0 0.0
2017-Apr-25 08:58N 51°51' W 008°18'0 0.0
2017-Apr-25 08:28N 51°51' W 008°18'0 0.0
2017-Apr-25 07:58N 51°51' W 008°18'0 0.0
2017-Apr-25 07:28N 51°51' W 008°18'0 0.0
2017-Apr-25 06:58N 51°51' W 008°18'0 0.0
2017-Apr-25 06:28N 51°51' W 008°18'1 2.0
2017-Apr-25 06:00N 51°51' W 008°17'510.8
2017-Apr-25 05:30N 51°46' W 008°15'611.2
2017-Apr-25 05:01N 51°42' W 008°08'713.6
2017-Apr-25 04:30N 51°46' W 007°59'714.1
2017-Apr-25 04:00N 51°48' W 007°48'714.1
2017-Apr-25 03:30N 51°51' W 007°38'714.3
2017-Apr-25 03:00N 51°53' W 007°27'714.2
2017-Apr-25 02:30N 51°55' W 007°16'714.4
2017-Apr-25 02:01N 51°57' W 007°04'714.7
2017-Apr-25 01:31N 51°59' W 006°53'815.1
2017-Apr-25 01:01N 52°01' W 006°41'915.5
2017-Apr-25 00:27N 52°04' W 006°28'716.4
2017-Apr-25 00:00N 52°06' W 006°16'816.7
2017-Apr-24 23:30N 52°12' W 006°07'917.7
2017-Apr-24 23:01N 52°20' W 006°03'917.0
2017-Apr-24 22:30N 52°29' W 006°00'3914.5
2017-Apr-24 19:50N 53°07' W 005°57'613.8
2017-Apr-24 19:26N 53°13' W 005°60'614.1
2017-Apr-24 19:00N 53°18' W 006°03'510.9
2017-Apr-24 18:30N 53°21' W 006°11'1 1.9
2017-Apr-24 17:59N 53°21' W 006°13'0 0.0
2017-Apr-24 17:26N 53°21' W 006°13'0 0.0
2017-Apr-24 16:53N 53°21' W 006°13'0 0.0
2017-Apr-24 16:14N 53°21' W 006°13'0 0.0
2017-Apr-24 15:50N 53°21' W 006°13'0 0.0
2017-Apr-24 15:17N 53°21' W 006°13'0 0.0
2017-Apr-24 14:38N 53°21' W 006°13'0 0.0
2017-Apr-24 14:14N 53°21' W 006°13'0 0.0
2017-Apr-24 13:29N 53°21' W 006°13'0 0.0
2017-Apr-24 12:56N 53°21' W 006°13'0 0.0
2017-Apr-24 12:29N 53°21' W 006°13'0 0.0
2017-Apr-24 11:59N 53°21' W 006°13'0 0.0
2017-Apr-24 11:29N 53°21' W 006°13'0 0.0
2017-Apr-24 10:56N 53°21' W 006°13'0 0.0
2017-Apr-24 10:26N 53°21' W 006°13'0 0.0
2017-Apr-24 09:56N 53°21' W 006°13'0 0.0
2017-Apr-24 09:26N 53°21' W 006°13'0 0.0
2017-Apr-24 08:56N 53°21' W 006°13'0 0.0
2017-Apr-24 08:23N 53°21' W 006°13'0 0.0
2017-Apr-24 07:50N 53°21' W 006°13'0 0.0
2017-Apr-24 07:20N 53°21' W 006°13'0 0.0
2017-Apr-24 06:54N 53°21' W 006°13'0 1.2
2017-Apr-24 06:30N 53°21' W 006°12'510.0
2017-Apr-24 06:00N 53°20' W 006°04'510.8
2017-Apr-24 05:30N 53°25' W 005°58'713.1
2017-Apr-24 05:00N 53°28' W 005°49'712.3
2017-Apr-24 04:24N 53°35' W 005°52'614.1
2017-Apr-24 03:59N 53°41' W 005°48'714.3
2017-Apr-24 03:30N 53°47' W 005°44'714.6
2017-Apr-24 03:00N 53°54' W 005°39'714.5
2017-Apr-24 02:30N 54°01' W 005°35'714.4
2017-Apr-24 02:00N 54°07' W 005°30'714.1
2017-Apr-24 01:30N 54°14' W 005°26'714.4
2017-Apr-24 01:00N 54°21' W 005°21'714.1
2017-Apr-24 00:30N 54°28' W 005°20'815.6
2017-Apr-24 00:00N 54°35' W 005°20'815.2
2017-Apr-23 23:30N 54°43' W 005°23'816.0
2017-Apr-23 23:00N 54°50' W 005°30'916.1
2017-Apr-23 22:28N 54°57' W 005°38'1116.6
2017-Apr-23 21:47N 55°06' W 005°50'517.1
2017-Apr-23 21:30N 55°10' W 005°55'917.8
2017-Apr-23 21:00N 55°17' W 006°03'917.2
2017-Apr-23 20:30N 55°22' W 006°16'917.5
2017-Apr-23 20:00N 55°30' W 006°23'917.5
2017-Apr-23 19:30N 55°37' W 006°33'918.5
2017-Apr-23 19:00N 55°45' W 006°40'15 0.3
2017-Apr-21 23:08N 55°54' W 007°01'216.4
2017-Apr-21 23:00N 55°52' W 006°59'816.6
2017-Apr-21 22:31N 55°46' W 006°50'917.4
2017-Apr-21 22:00N 55°39' W 006°40'917.4
2017-Apr-21 21:31N 55°33' W 006°29'917.1
2017-Apr-21 21:01N 55°28' W 006°17'816.6
2017-Apr-21 20:31N 55°24' W 006°04'816.6
2017-Apr-21 20:00N 55°17' W 005°55'1316.3
2017-Apr-21 19:13N 55°05' W 005°48'716.0
2017-Apr-21 18:48N 54°59' W 005°44'815.7
2017-Apr-21 18:16N 54°51' W 005°40'415.8
2017-Apr-21 18:01N 54°47' W 005°40'612.5
2017-Apr-21 17:30N 54°41' W 005°46'510.8
2017-Apr-21 17:00N 54°38' W 005°53'2 3.3
2017-Apr-21 16:30N 54°37' W 005°55'0 0.2
2017-Apr-21 15:58N 54°37' W 005°55'0 0.0
2017-Apr-21 15:28N 54°37' W 005°55'0 0.0
2017-Apr-21 14:49N 54°37' W 005°55'0 0.0
2017-Apr-21 14:16N 54°37' W 005°55'0 0.0
2017-Apr-21 13:22N 54°37' W 005°55'0 0.0
2017-Apr-21 12:58N 54°37' W 005°55'0 0.0
2017-Apr-21 12:25N 54°37' W 005°55'0 0.0
2017-Apr-21 11:58N 54°37' W 005°55'0 0.0
2017-Apr-21 11:28N 54°37' W 005°55'0 0.0
2017-Apr-21 10:58N 54°37' W 005°55'0 0.0
2017-Apr-21 10:28N 54°37' W 005°55'0 0.0
2017-Apr-21 09:55N 54°37' W 005°55'0 0.0
2017-Apr-21 09:28N 54°37' W 005°55'0 0.0
2017-Apr-21 08:58N 54°37' W 005°55'0 0.0
2017-Apr-21 08:28N 54°37' W 005°55'0 0.0
2017-Apr-21 07:58N 54°37' W 005°55'0 0.0
2017-Apr-21 07:28N 54°37' W 005°55'0 0.0
2017-Apr-21 06:58N 54°37' W 005°55'0 0.0
2017-Apr-21 06:28N 54°37' W 005°55'0 0.0
2017-Apr-21 05:52N 54°37' W 005°55'0 0.4
2017-Apr-21 05:30N 54°37' W 005°55'2 4.7
2017-Apr-21 05:01N 54°39' W 005°52'510.0
2017-Apr-21 04:31N 54°42' W 005°46'5 9.7
2017-Apr-21 04:01N 54°44' W 005°38'611.4
2017-Apr-21 03:31N 54°42' W 005°28'612.2
2017-Apr-21 03:01N 54°36' W 005°24'612.8
2017-Apr-21 02:30N 54°30' W 005°21'713.1
2017-Apr-21 02:01N 54°24' W 005°19'713.1
2017-Apr-21 01:31N 54°17' W 005°18'713.0
2017-Apr-21 01:01N 54°10' W 005°18'510.2
2017-Apr-21 00:31N 54°05' W 005°19'510.6
2017-Apr-21 00:01N 54°00' W 005°20'510.5
2017-Apr-20 23:31N 53°55' W 005°21'2910.1
2017-Apr-20 20:39N 53°26' W 005°28'2 9.7
2017-Apr-20 20:24N 53°24' W 005°28'5 9.6
2017-Apr-20 19:52N 53°19' W 005°29'5810.8
2017-Apr-20 14:30N 52°21' W 005°40'46 9.1
2017-Apr-20 09:26N 51°35' W 005°37'4 9.8
2017-Apr-20 09:00N 51°34' W 005°30'5 9.5
2017-Apr-20 08:30N 51°33' W 005°23'5 9.4
2017-Apr-20 08:00N 51°32' W 005°15'5 9.2
2017-Apr-20 07:30N 51°31' W 005°08'5 9.5
2017-Apr-20 07:01N 51°30' W 005°01'510.0
2017-Apr-20 06:31N 51°29' W 004°53'910.6
2017-Apr-20 05:40N 51°27' W 004°39'210.5
2017-Apr-20 05:26N 51°26' W 004°35'510.9
2017-Apr-20 04:58N 51°25' W 004°27'511.2
2017-Apr-20 04:30N 51°24' W 004°19'611.1
2017-Apr-20 04:01N 51°23' W 004°11'611.7
2017-Apr-20 03:31N 51°21' W 004°01'612.3
2017-Apr-20 03:00N 51°20' W 003°51'612.7
2017-Apr-20 02:31N 51°20' W 003°41'1112.2
2017-Apr-20 01:36N 51°21' W 003°24'211.8
2017-Apr-20 01:24N 51°21' W 003°20'510.3
2017-Apr-20 00:53N 51°22' W 003°12'513.0
2017-Apr-20 00:30N 51°23' W 003°04'713.1
2017-Apr-20 00:00N 51°27' W 002°56'713.4
2017-Apr-19 23:30N 51°30' W 002°46'2 4.0
2017-Apr-19 23:00N 51°30' W 002°43'0 0.3
2017-Apr-19 22:28N 51°30' W 002°43'0 0.0
2017-Apr-19 21:58N 51°30' W 002°43'0 0.0
2017-Apr-19 21:28N 51°30' W 002°43'0 0.0
2017-Apr-19 20:58N 51°30' W 002°43'0 0.0
2017-Apr-19 20:28N 51°30' W 002°43'0 0.0
2017-Apr-19 19:58N 51°30' W 002°43'0 0.0
2017-Apr-19 19:28N 51°30' W 002°43'0 0.0
2017-Apr-19 18:58N 51°30' W 002°43'0 0.0
2017-Apr-19 18:28N 51°30' W 002°43'0 0.0
2017-Apr-19 17:58N 51°30' W 002°43'0 0.0
2017-Apr-19 17:28N 51°30' W 002°43'0 0.0
2017-Apr-19 16:58N 51°30' W 002°43'0 0.0
2017-Apr-19 16:28N 51°30' W 002°43'0 0.0
2017-Apr-19 15:58N 51°30' W 002°43'0 0.0
2017-Apr-19 15:28N 51°30' W 002°43'0 0.0
2017-Apr-19 14:58N 51°30' W 002°43'0 0.0
2017-Apr-19 14:28N 51°30' W 002°43'0 0.0
2017-Apr-19 13:25N 51°30' W 002°43'0 0.0
2017-Apr-19 12:58N 51°30' W 002°43'0 0.0
2017-Apr-19 12:28N 51°30' W 002°43'0 0.3
2017-Apr-19 12:00N 51°30' W 002°43'0 0.2
2017-Apr-19 11:30N 51°30' W 002°43'0 0.3
2017-Apr-19 11:00N 51°30' W 002°43'3 6.5
2017-Apr-19 10:31N 51°29' W 002°48'714.7
2017-Apr-19 10:00N 51°27' W 002°59'4815.0
2017-Apr-19 06:47N 51°15' W 004°14'515.3
2017-Apr-19 06:28N 51°13' W 004°21'714.9
2017-Apr-19 06:00N 51°08' W 004°29'714.8
2017-Apr-19 05:30N 51°03' W 004°38'714.5
2017-Apr-19 05:00N 50°59' W 004°47'714.1
2017-Apr-19 04:30N 50°54' W 004°55'5 9.4
2017-Apr-19 04:00N 50°51' W 005°01'510.3
2017-Apr-19 03:30N 50°48' W 005°07'510.3
2017-Apr-19 03:01N 50°44' W 005°13'510.2
2017-Apr-19 02:30N 50°41' W 005°19'510.2
2017-Apr-19 02:00N 50°37' W 005°25'510.2
2017-Apr-19 01:30N 50°34' W 005°30'510.2
2017-Apr-19 01:00N 50°30' W 005°36'510.2
2017-Apr-19 00:30N 50°27' W 005°42'510.3
2017-Apr-19 00:00N 50°23' W 005°48'5 9.7
2017-Apr-18 23:30N 50°19' W 005°53'510.4
2017-Apr-18 23:00N 50°14' W 005°52'510.5
2017-Apr-18 22:30N 50°09' W 005°52'510.6
2017-Apr-18 22:00N 50°04' W 005°51'  

Dump ship's entire track history